MOL Maestro — 3EKT9 — position and weather

sailwx.info

Track history (hours):
 
Tides and Currents Weather Stations Pressure Air Temp Water Temp Dewpoint Dewpoint Depression Visibility Wind Speed Wind Dir Waves Ship Positions

MOL Maestro

Last reported at 2018-Jan-10 09:23 UTC. Time now 2018-Jan-23 19:36 UTC.
Position N 30°33' E 122°12'.
Warning: this ship's position is 13 days out of date.

Length 302 m; draft 11 m.

Type: Ship (hazmat cat A). MMSI: 373457000.

Date/timePositionNaut miles runAvg speedWind from/ knotsBaromVisibWave heightAir tempDewpointWater temp
2018-Jan-10 09:23N 30°33' E 122°12'410.3
2018-Jan-10 09:00N 30°35' E 122°08'4 5.9
2018-Jan-10 08:22N 30°37' E 122°04'0 0.0
2018-Jan-10 08:00N 30°37' E 122°04'0 0.0
2018-Jan-10 07:09N 30°37' E 122°04'0 0.0
2018-Jan-10 07:00N 30°37' E 122°04'0 0.0
2018-Jan-10 06:15N 30°37' E 122°04'0 0.0
2018-Jan-10 05:57N 30°37' E 122°04'0 0.0
2018-Jan-10 03:42N 30°37' E 122°04'0 0.0
2018-Jan-10 03:24N 30°37' E 122°04'0 0.0
2018-Jan-09 08:03N 30°37' E 122°04'0 0.0
2018-Jan-09 06:42N 30°37' E 122°04'0 0.2
2018-Jan-09 05:09N 30°37' E 122°04'2 6.9
2018-Jan-09 04:55N 30°36' E 122°06'613.2
2018-Jan-09 04:26N 30°34' E 122°13'  
2018-Jan-05 11:00N 33°48' E 134°52'1020.2
2018-Jan-05 10:31N 33°57' E 134°53'1019.8
2018-Jan-05 10:00N 34°07' E 134°55'714.5
2018-Jan-05 09:31N 34°14' E 134°57'917.6
2018-Jan-05 09:00N 34°22' E 135°01'1020.2
2018-Jan-05 08:30N 34°29' E 135°10'917.9
2018-Jan-05 08:01N 34°36' E 135°16'3 6.5
2018-Jan-05 07:30N 34°39' E 135°15'0 0.5
2018-Jan-05 07:00N 34°39' E 135°15'0 0.0
2018-Jan-05 06:30N 34°39' E 135°15'0 0.0
2018-Jan-05 05:57N 34°39' E 135°15'0 0.0
2018-Jan-05 05:30N 34°39' E 135°15'0 0.0
2018-Jan-05 05:00N 34°39' E 135°15'0 0.0
2018-Jan-05 04:30N 34°39' E 135°15'0 0.0
2018-Jan-05 04:00N 34°39' E 135°15'0 0.0
2018-Jan-05 03:27N 34°39' E 135°15'0 0.0
2018-Jan-05 03:00N 34°39' E 135°15'0 0.0
2018-Jan-05 02:30N 34°39' E 135°15'0 0.0
2018-Jan-05 01:57N 34°39' E 135°15'0 0.0
2018-Jan-05 01:27N 34°39' E 135°15'0 0.0
2018-Jan-05 01:00N 34°39' E 135°15'0 0.0
2018-Jan-05 00:30N 34°39' E 135°15'0 0.0
2018-Jan-05 00:00N 34°39' E 135°15'0 0.0
2018-Jan-04 23:30N 34°39' E 135°15'0 0.0
2018-Jan-04 23:00N 34°39' E 135°15'0 0.2
2018-Jan-04 22:30N 34°39' E 135°15'2 4.1
2018-Jan-04 22:00N 34°38' E 135°16'4 9.0
2018-Jan-04 21:30N 34°33' E 135°16'815.5
2018-Jan-04 21:00N 34°27' E 135°10'918.2
2018-Jan-04 20:30N 34°21' E 135°02'815.7
2018-Jan-04 20:00N 34°13' E 134°59'611.6
2018-Jan-04 19:31N 34°07' E 134°59'611.0
2018-Jan-04 19:00N 34°02' E 134°60'611.2
2018-Jan-04 18:30N 33°56' E 134°60'610.9
2018-Jan-04 18:00N 33°51' E 134°60'510.8
2018-Jan-04 17:30N 33°46' E 135°02'511.0
2018-Jan-04 17:01N 33°41' E 135°05'810.6
2018-Jan-04 16:17N 33°34' E 135°09'410.5
2018-Jan-04 15:54N 33°31' E 135°12'410.5
2018-Jan-04 15:30N 33°27' E 135°15'69 6.2
2018-Jan-04 04:31N 33°35' E 136°36'11812.5
2018-Jan-03 19:07N 34°23' E 138°46'111.5
2018-Jan-03 19:00N 34°23' E 138°47'611.4
2018-Jan-03 18:26N 34°26' E 138°54'510.9
2018-Jan-03 18:01N 34°28' E 138°60'611.1
2018-Jan-03 17:30N 34°30' E 139°06'510.9
2018-Jan-03 17:01N 34°32' E 139°12'5 9.9
2018-Jan-03 16:30N 34°34' E 139°17'510.4
2018-Jan-03 16:01N 34°37' E 139°23'510.1
2018-Jan-03 15:30N 34°39' E 139°28'510.4
2018-Jan-03 14:59N 34°43' E 139°33'511.3
2018-Jan-03 14:31N 34°48' E 139°35'611.9
2018-Jan-03 14:00N 34°54' E 139°37'612.1
2018-Jan-03 13:31N 34°59' E 139°40'611.9
2018-Jan-03 13:01N 35°05' E 139°43'612.0
2018-Jan-03 12:30N 35°10' E 139°45'611.6
2018-Jan-03 12:01N 35°16' E 139°46'713.5
2018-Jan-03 11:30N 35°22' E 139°42'816.1
2018-Jan-03 11:01N 35°28' E 139°49'612.1
2018-Jan-03 10:30N 35°34' E 139°49'3 5.9
2018-Jan-03 10:00N 35°36' E 139°46'0 0.3
2018-Jan-03 09:29N 35°36' E 139°46'0 0.0
2018-Jan-03 08:59N 35°36' E 139°46'0 0.0
2018-Jan-03 08:29N 35°36' E 139°46'0 0.0
2018-Jan-03 07:59N 35°36' E 139°46'0 0.0
2018-Jan-03 07:29N 35°36' E 139°46'0 0.0
2018-Jan-03 06:59N 35°36' E 139°46'0 0.0
2018-Jan-03 06:29N 35°36' E 139°46'0 0.0
2018-Jan-03 05:56N 35°36' E 139°46'0 0.0
2018-Jan-03 05:23N 35°36' E 139°46'0 0.0
2018-Jan-03 04:59N 35°36' E 139°46'0 0.0
2018-Jan-03 04:29N 35°36' E 139°46'0 0.0
2018-Jan-03 03:59N 35°36' E 139°46'0 0.0
2018-Jan-03 03:29N 35°36' E 139°46'0 0.0
2018-Jan-03 02:53N 35°36' E 139°46'0 0.0
2018-Jan-03 02:26N 35°36' E 139°46'0 0.0
2018-Jan-03 01:59N 35°36' E 139°46'0 0.0
2018-Jan-03 01:26N 35°36' E 139°46'0 0.0
2018-Jan-03 00:53N 35°36' E 139°46'0 0.0
2018-Jan-03 00:23N 35°36' E 139°46'0 0.0
2018-Jan-02 23:59N 35°36' E 139°46'0 0.0
2018-Jan-02 23:26N 35°36' E 139°46'1 2.4
2018-Jan-02 23:01N 35°36' E 139°47'5 9.1
2018-Jan-02 22:31N 35°33' E 139°51'510.3
2018-Jan-02 22:01N 35°28' E 139°51'713.3
2018-Jan-02 21:31N 35°22' E 139°46'611.0
2018-Jan-02 21:00N 35°17' E 139°46'611.5
2018-Jan-02 20:30N 35°11' E 139°47'5 9.7
2018-Jan-02 20:01N 35°06' E 139°47'510.0
2018-Jan-02 19:30N 35°02' E 139°44'712.8
2018-Jan-02 19:00N 34°55' E 139°45'612.9
2018-Jan-02 18:30N 34°51' E 139°50'714.2
2018-Jan-02 17:59N 34°51' E 139°59'714.1
2018-Jan-02 17:30N 34°53' E 140°07'713.9
2018-Jan-02 17:00N 34°56' E 140°14'813.7
2018-Jan-02 16:26N 34°60' E 140°23'  
Track history (hours):
 
Tides and Currents Weather Stations Pressure Air Temp Water Temp Dewpoint Dewpoint Depression Visibility Wind Speed Wind Dir Waves Ship Positions

MOL Maestro

Last reported at 2018-Jan-10 09:23 UTC. Time now 2018-Jan-23 19:36 UTC.
Position N 30°33' E 122°12'.
Warning: this ship's position is 13 days out of date.

Length 302 m; draft 11 m.

Type: Ship (hazmat cat A). MMSI: 373457000.

Date/timePositionNaut miles runAvg speedWind from/ knotsBaromVisibWave heightAir tempDewpointWater temp
2018-Jan-10 09:23N 30°33' E 122°12'410.3
2018-Jan-10 09:00N 30°35' E 122°08'4 5.9
2018-Jan-10 08:22N 30°37' E 122°04'0 0.0
2018-Jan-10 08:00N 30°37' E 122°04'0 0.0
2018-Jan-10 07:09N 30°37' E 122°04'0 0.0
2018-Jan-10 07:00N 30°37' E 122°04'0 0.0
2018-Jan-10 06:15N 30°37' E 122°04'0 0.0
2018-Jan-10 05:57N 30°37' E 122°04'0 0.0
2018-Jan-10 03:42N 30°37' E 122°04'0 0.0
2018-Jan-10 03:24N 30°37' E 122°04'0 0.0
2018-Jan-09 08:03N 30°37' E 122°04'0 0.0
2018-Jan-09 06:42N 30°37' E 122°04'0 0.2
2018-Jan-09 05:09N 30°37' E 122°04'2 6.9
2018-Jan-09 04:55N 30°36' E 122°06'613.2
2018-Jan-09 04:26N 30°34' E 122°13'  
2018-Jan-05 11:00N 33°48' E 134°52'1020.2
2018-Jan-05 10:31N 33°57' E 134°53'1019.8
2018-Jan-05 10:00N 34°07' E 134°55'714.5
2018-Jan-05 09:31N 34°14' E 134°57'917.6
2018-Jan-05 09:00N 34°22' E 135°01'1020.2
2018-Jan-05 08:30N 34°29' E 135°10'917.9
2018-Jan-05 08:01N 34°36' E 135°16'3 6.5
2018-Jan-05 07:30N 34°39' E 135°15'0 0.5
2018-Jan-05 07:00N 34°39' E 135°15'0 0.0
2018-Jan-05 06:30N 34°39' E 135°15'0 0.0
2018-Jan-05 05:57N 34°39' E 135°15'0 0.0
2018-Jan-05 05:30N 34°39' E 135°15'0 0.0
2018-Jan-05 05:00N 34°39' E 135°15'0 0.0
2018-Jan-05 04:30N 34°39' E 135°15'0 0.0
2018-Jan-05 04:00N 34°39' E 135°15'0 0.0
2018-Jan-05 03:27N 34°39' E 135°15'0 0.0
2018-Jan-05 03:00N 34°39' E 135°15'0 0.0
2018-Jan-05 02:30N 34°39' E 135°15'0 0.0
2018-Jan-05 01:57N 34°39' E 135°15'0 0.0
2018-Jan-05 01:27N 34°39' E 135°15'0 0.0
2018-Jan-05 01:00N 34°39' E 135°15'0 0.0
2018-Jan-05 00:30N 34°39' E 135°15'0 0.0
2018-Jan-05 00:00N 34°39' E 135°15'0 0.0
2018-Jan-04 23:30N 34°39' E 135°15'0 0.0
2018-Jan-04 23:00N 34°39' E 135°15'0 0.2
2018-Jan-04 22:30N 34°39' E 135°15'2 4.1
2018-Jan-04 22:00N 34°38' E 135°16'4 9.0
2018-Jan-04 21:30N 34°33' E 135°16'815.5
2018-Jan-04 21:00N 34°27' E 135°10'918.2
2018-Jan-04 20:30N 34°21' E 135°02'815.7
2018-Jan-04 20:00N 34°13' E 134°59'611.6
2018-Jan-04 19:31N 34°07' E 134°59'611.0
2018-Jan-04 19:00N 34°02' E 134°60'611.2
2018-Jan-04 18:30N 33°56' E 134°60'610.9
2018-Jan-04 18:00N 33°51' E 134°60'510.8
2018-Jan-04 17:30N 33°46' E 135°02'511.0
2018-Jan-04 17:01N 33°41' E 135°05'810.6
2018-Jan-04 16:17N 33°34' E 135°09'410.5
2018-Jan-04 15:54N 33°31' E 135°12'410.5
2018-Jan-04 15:30N 33°27' E 135°15'69 6.2
2018-Jan-04 04:31N 33°35' E 136°36'11812.5
2018-Jan-03 19:07N 34°23' E 138°46'111.5
2018-Jan-03 19:00N 34°23' E 138°47'611.4
2018-Jan-03 18:26N 34°26' E 138°54'510.9
2018-Jan-03 18:01N 34°28' E 138°60'611.1
2018-Jan-03 17:30N 34°30' E 139°06'510.9
2018-Jan-03 17:01N 34°32' E 139°12'5 9.9
2018-Jan-03 16:30N 34°34' E 139°17'510.4
2018-Jan-03 16:01N 34°37' E 139°23'510.1
2018-Jan-03 15:30N 34°39' E 139°28'510.4
2018-Jan-03 14:59N 34°43' E 139°33'511.3
2018-Jan-03 14:31N 34°48' E 139°35'611.9
2018-Jan-03 14:00N 34°54' E 139°37'612.1
2018-Jan-03 13:31N 34°59' E 139°40'611.9
2018-Jan-03 13:01N 35°05' E 139°43'612.0
2018-Jan-03 12:30N 35°10' E 139°45'611.6
2018-Jan-03 12:01N 35°16' E 139°46'713.5
2018-Jan-03 11:30N 35°22' E 139°42'816.1
2018-Jan-03 11:01N 35°28' E 139°49'612.1
2018-Jan-03 10:30N 35°34' E 139°49'3 5.9
2018-Jan-03 10:00N 35°36' E 139°46'0 0.3
2018-Jan-03 09:29N 35°36' E 139°46'0 0.0
2018-Jan-03 08:59N 35°36' E 139°46'0 0.0
2018-Jan-03 08:29N 35°36' E 139°46'0 0.0
2018-Jan-03 07:59N 35°36' E 139°46'0 0.0
2018-Jan-03 07:29N 35°36' E 139°46'0 0.0
2018-Jan-03 06:59N 35°36' E 139°46'0 0.0
2018-Jan-03 06:29N 35°36' E 139°46'0 0.0
2018-Jan-03 05:56N 35°36' E 139°46'0 0.0
2018-Jan-03 05:23N 35°36' E 139°46'0 0.0
2018-Jan-03 04:59N 35°36' E 139°46'0 0.0
2018-Jan-03 04:29N 35°36' E 139°46'0 0.0
2018-Jan-03 03:59N 35°36' E 139°46'0 0.0
2018-Jan-03 03:29N 35°36' E 139°46'0 0.0
2018-Jan-03 02:53N 35°36' E 139°46'0 0.0
2018-Jan-03 02:26N 35°36' E 139°46'0 0.0
2018-Jan-03 01:59N 35°36' E 139°46'0 0.0
2018-Jan-03 01:26N 35°36' E 139°46'0 0.0
2018-Jan-03 00:53N 35°36' E 139°46'0 0.0
2018-Jan-03 00:23N 35°36' E 139°46'0 0.0
2018-Jan-02 23:59N 35°36' E 139°46'0 0.0
2018-Jan-02 23:26N 35°36' E 139°46'1 2.4
2018-Jan-02 23:01N 35°36' E 139°47'5 9.1
2018-Jan-02 22:31N 35°33' E 139°51'510.3
2018-Jan-02 22:01N 35°28' E 139°51'713.3
2018-Jan-02 21:31N 35°22' E 139°46'611.0
2018-Jan-02 21:00N 35°17' E 139°46'611.5
2018-Jan-02 20:30N 35°11' E 139°47'5 9.7
2018-Jan-02 20:01N 35°06' E 139°47'510.0
2018-Jan-02 19:30N 35°02' E 139°44'712.8
2018-Jan-02 19:00N 34°55' E 139°45'612.9
2018-Jan-02 18:30N 34°51' E 139°50'714.2
2018-Jan-02 17:59N 34°51' E 139°59'714.1
2018-Jan-02 17:30N 34°53' E 140°07'713.9
2018-Jan-02 17:00N 34°56' E 140°14'813.7
2018-Jan-02 16:26N 34°60' E 140°23'  

Dump ship's entire track history